TVS4NQ LGKO-LKPR
Flight info
| Callsign | TVS4NQ |
|---|---|
| Flight time | N/A |
| Altitude | 38000 |
| Route | LARKI UL609 MES UG18 GIKAS UN133 PEREN UL863 EVIVI L863 OKANA DCT TONDO DCT BEGLA DCT NAVTI DCT BODAL DCT VLM |
| Aircraft | B38M/M-SDE3FGHIJ1RWXYZ/LB1 |
Departure
| Time | 2026-05-06 15:07 |
|---|---|
| Airport | Kos International Airport "Ippokratis" (LGKO) |
Arrival
| Time | N/A |
|---|---|
| Airport | Václav Havel Airport Prague (LKPR) |
| Time | Latitude | Longitude | Altitude | Speed | Heading |
|---|---|---|---|---|---|
| 2026-05-06 14:22 | 36.80108 | 27.08946 | 417 ft | 0 kts | 58° |
| 2026-05-06 14:49 | 36.80099 | 27.08929 | 410 ft | 4 kts | 58° |
| 2026-05-06 14:50 | 36.80088 | 27.08906 | 416 ft | 4 kts | 67° |
| 2026-05-06 14:50 | 36.80084 | 27.08876 | 415 ft | 4 kts | 108° |
| 2026-05-06 14:50 | 36.80098 | 27.08855 | 413 ft | 4 kts | 148° |
| 2026-05-06 14:50 | 36.80113 | 27.08843 | 410 ft | 0 kts | 148° |
| 2026-05-06 14:59 | 36.80113 | 27.08844 | 421 ft | 1 kts | 147° |
| 2026-05-06 14:59 | 36.80071 | 27.08877 | 421 ft | 17 kts | 147° |
| 2026-05-06 15:00 | 36.79944 | 27.08971 | 421 ft | 20 kts | 161° |
| 2026-05-06 15:00 | 36.79830 | 27.08984 | 421 ft | 12 kts | 178° |
| 2026-05-06 15:00 | 36.79809 | 27.08984 | 415 ft | 0 kts | 178° |
| 2026-05-06 15:02 | 36.79808 | 27.08984 | 416 ft | 1 kts | 178° |
| 2026-05-06 15:03 | 36.79767 | 27.08986 | 412 ft | 14 kts | 178° |
| 2026-05-06 15:03 | 36.79615 | 27.08998 | 415 ft | 26 kts | 163° |
| 2026-05-06 15:03 | 36.79502 | 27.09079 | 420 ft | 29 kts | 148° |
| 2026-05-06 15:03 | 36.79318 | 27.09222 | 413 ft | 33 kts | 148° |
| 2026-05-06 15:04 | 36.79111 | 27.09385 | 404 ft | 37 kts | 148° |
| 2026-05-06 15:04 | 36.78882 | 27.09562 | 399 ft | 39 kts | 148° |
| 2026-05-06 15:04 | 36.78665 | 27.09730 | 393 ft | 30 kts | 148° |
| 2026-05-06 15:04 | 36.78581 | 27.09828 | 391 ft | 11 kts | 166° |
| 2026-05-06 15:05 | 36.78569 | 27.09806 | 391 ft | 2 kts | 295° |
| 2026-05-06 15:05 | 36.78575 | 27.09801 | 391 ft | 0 kts | 327° |
| 2026-05-06 15:06 | 36.78632 | 27.09757 | 394 ft | 36 kts | 328° |
| 2026-05-06 15:06 | 36.79064 | 27.09420 | 402 ft | 108 kts | 328° |
| 2026-05-06 15:06 | 36.79867 | 27.08790 | 430 ft | 162 kts | 327° |
| 2026-05-06 15:07 | 36.80863 | 27.08003 | 976 ft | 177 kts | 326° |
| 2026-05-06 15:07 | 36.81883 | 27.07084 | 1804 ft | 184 kts | 313° |
| 2026-05-06 15:07 | 36.82561 | 27.05688 | 2494 ft | 200 kts | 287° |
| 2026-05-06 15:07 | 36.82618 | 27.03867 | 3103 ft | 222 kts | 267° |
| 2026-05-06 15:08 | 36.82726 | 27.01887 | 3548 ft | 239 kts | 295° |
| 2026-05-06 15:08 | 36.83616 | 27.00159 | 4428 ft | 236 kts | 308° |
| 2026-05-06 15:08 | 36.84529 | 26.98359 | 5022 ft | 255 kts | 304° |
| 2026-05-06 15:08 | 36.85480 | 26.96433 | 5787 ft | 261 kts | 304° |
| 2026-05-06 15:09 | 36.86432 | 26.94522 | 6791 ft | 260 kts | 305° |
| 2026-05-06 15:09 | 36.87384 | 26.92615 | 7599 ft | 265 kts | 304° |
| 2026-05-06 15:09 | 36.88366 | 26.90655 | 8439 ft | 268 kts | 304° |
| 2026-05-06 15:09 | 36.89363 | 26.88666 | 9283 ft | 272 kts | 304° |
| 2026-05-06 15:10 | 36.90378 | 26.86640 | 9946 ft | 278 kts | 304° |
| 2026-05-06 15:10 | 36.91429 | 26.84543 | 10377 ft | 286 kts | 304° |
| 2026-05-06 15:10 | 36.92505 | 26.82397 | 10735 ft | 305 kts | 304° |
| 2026-05-06 15:10 | 36.93654 | 26.80100 | 11197 ft | 319 kts | 304° |
| 2026-05-06 15:11 | 36.94814 | 26.77725 | 11930 ft | 321 kts | 302° |
| 2026-05-06 15:11 | 36.95976 | 26.75318 | 12692 ft | 325 kts | 306° |
| 2026-05-06 15:11 | 36.97541 | 26.73308 | 13450 ft | 325 kts | 327° |
| 2026-05-06 15:11 | 36.99623 | 26.72194 | 14147 ft | 330 kts | 348° |
| 2026-05-06 15:12 | 37.01922 | 26.72138 | 14829 ft | 336 kts | 8° |
| 2026-05-06 15:12 | 37.04145 | 26.73103 | 15514 ft | 344 kts | 26° |
| 2026-05-06 15:12 | 37.06231 | 26.74597 | 16153 ft | 346 kts | 19° |
| 2026-05-06 15:12 | 37.08550 | 26.75304 | 16801 ft | 344 kts | 8° |
| 2026-05-06 15:13 | 37.10911 | 26.75923 | 17426 ft | 349 kts | 9° |
| 2026-05-06 15:13 | 37.13292 | 26.76566 | 18074 ft | 352 kts | 9° |
| 2026-05-06 15:13 | 37.15698 | 26.77220 | 18640 ft | 356 kts | 9° |
| 2026-05-06 15:13 | 37.18116 | 26.77878 | 19185 ft | 358 kts | 8° |
| 2026-05-06 15:14 | 37.20556 | 26.78544 | 19754 ft | 360 kts | 8° |
| 2026-05-06 15:14 | 37.23011 | 26.79214 | 20298 ft | 362 kts | 8° |
| 2026-05-06 15:14 | 37.25476 | 26.79887 | 20841 ft | 364 kts | 8° |
| 2026-05-06 15:14 | 37.27960 | 26.80566 | 21381 ft | 366 kts | 8° |
| 2026-05-06 15:15 | 37.30454 | 26.81249 | 21928 ft | 368 kts | 8° |
| 2026-05-06 15:15 | 37.32966 | 26.81936 | 22466 ft | 371 kts | 8° |
| 2026-05-06 15:15 | 37.35497 | 26.82627 | 23005 ft | 373 kts | 7° |
| 2026-05-06 15:15 | 37.38060 | 26.82873 | 23509 ft | 368 kts | 351° |
| 2026-05-06 15:16 | 37.40521 | 26.82079 | 23942 ft | 367 kts | 334° |
| 2026-05-06 15:16 | 37.42691 | 26.80396 | 24357 ft | 368 kts | 322° |
| 2026-05-06 15:16 | 37.44715 | 26.78407 | 24781 ft | 371 kts | 321° |
| 2026-05-06 15:16 | 37.46722 | 26.76352 | 25218 ft | 373 kts | 321° |
| 2026-05-06 15:17 | 37.48718 | 26.74254 | 25667 ft | 375 kts | 320° |
| 2026-05-06 15:17 | 37.50713 | 26.72132 | 26107 ft | 376 kts | 320° |
| 2026-05-06 15:17 | 37.52710 | 26.69986 | 26522 ft | 378 kts | 320° |
| 2026-05-06 15:17 | 37.54714 | 26.67822 | 26944 ft | 380 kts | 320° |
| 2026-05-06 15:18 | 37.56729 | 26.65642 | 27352 ft | 382 kts | 320° |
| 2026-05-06 15:18 | 37.58752 | 26.63450 | 27756 ft | 384 kts | 320° |
| 2026-05-06 15:18 | 37.60781 | 26.61249 | 28152 ft | 386 kts | 320° |
| 2026-05-06 15:18 | 37.62822 | 26.59034 | 28544 ft | 388 kts | 319° |
| 2026-05-06 15:19 | 37.64874 | 26.56805 | 28935 ft | 390 kts | 319° |
| 2026-05-06 15:19 | 37.66934 | 26.54564 | 29256 ft | 393 kts | 319° |
| 2026-05-06 15:19 | 37.69015 | 26.52305 | 29588 ft | 396 kts | 319° |
| 2026-05-06 15:19 | 37.71111 | 26.50029 | 29970 ft | 398 kts | 319° |
| 2026-05-06 15:20 | 37.73211 | 26.47747 | 30283 ft | 400 kts | 319° |
| 2026-05-06 15:20 | 37.75324 | 26.45448 | 30575 ft | 402 kts | 319° |
| 2026-05-06 15:20 | 37.77447 | 26.43137 | 30861 ft | 404 kts | 319° |
| 2026-05-06 15:20 | 37.79585 | 26.40807 | 31151 ft | 406 kts | 319° |
| 2026-05-06 15:21 | 37.81724 | 26.38475 | 31443 ft | 408 kts | 319° |
| 2026-05-06 15:21 | 37.83881 | 26.36123 | 31736 ft | 410 kts | 319° |
| 2026-05-06 15:21 | 37.86039 | 26.33766 | 32104 ft | 409 kts | 319° |
| 2026-05-06 15:21 | 37.88188 | 26.31410 | 32490 ft | 409 kts | 319° |
| 2026-05-06 15:22 | 37.90336 | 26.29054 | 32868 ft | 408 kts | 319° |
| 2026-05-06 15:22 | 37.92482 | 26.26699 | 33256 ft | 407 kts | 319° |
| 2026-05-06 15:22 | 37.94621 | 26.24349 | 33582 ft | 407 kts | 319° |
| 2026-05-06 15:22 | 37.96762 | 26.21996 | 33904 ft | 408 kts | 318° |
| 2026-05-06 15:23 | 37.98901 | 26.19643 | 34239 ft | 407 kts | 318° |
| 2026-05-06 15:23 | 38.01007 | 26.17325 | 34535 ft | 407 kts | 318° |
| 2026-05-06 15:23 | 38.03142 | 26.14972 | 34842 ft | 406 kts | 318° |
| 2026-05-06 15:23 | 38.05271 | 26.12625 | 35139 ft | 406 kts | 318° |
| 2026-05-06 15:24 | 38.07398 | 26.10275 | 35438 ft | 405 kts | 318° |
| 2026-05-06 15:24 | 38.09520 | 26.07931 | 35721 ft | 404 kts | 318° |
| 2026-05-06 15:24 | 38.11639 | 26.05588 | 35992 ft | 404 kts | 318° |
| 2026-05-06 15:24 | 38.13756 | 26.03245 | 36277 ft | 403 kts | 318° |
| 2026-05-06 15:25 | 38.15867 | 26.00905 | 36538 ft | 403 kts | 318° |
| 2026-05-06 15:25 | 38.17980 | 25.98564 | 36782 ft | 402 kts | 318° |
| 2026-05-06 15:25 | 38.20085 | 25.96228 | 37032 ft | 402 kts | 318° |
| 2026-05-06 15:25 | 38.22191 | 25.93888 | 37243 ft | 402 kts | 318° |
| 2026-05-06 15:26 | 38.24300 | 25.91548 | 37425 ft | 403 kts | 319° |
| 2026-05-06 15:26 | 38.26509 | 25.89357 | 37640 ft | 403 kts | 322° |
| 2026-05-06 15:26 | 38.28740 | 25.87193 | 37874 ft | 402 kts | 321° |
| 2026-05-06 15:26 | 38.30957 | 25.85020 | 38053 ft | 403 kts | 321° |
| 2026-05-06 15:27 | 38.33176 | 25.82836 | 38086 ft | 403 kts | 321° |
| 2026-05-06 15:27 | 38.37596 | 25.78489 | 38075 ft | 401 kts | 321° |
| 2026-05-06 15:28 | 38.42022 | 25.74171 | 38086 ft | 401 kts | 321° |
| 2026-05-06 15:28 | 38.46444 | 25.69848 | 38077 ft | 401 kts | 321° |
| 2026-05-06 15:29 | 38.50870 | 25.65517 | 38069 ft | 401 kts | 321° |
| 2026-05-06 15:29 | 38.55301 | 25.61173 | 38070 ft | 402 kts | 321° |
| 2026-05-06 15:30 | 38.59744 | 25.56811 | 38072 ft | 403 kts | 321° |
| 2026-05-06 15:30 | 38.64187 | 25.52441 | 38067 ft | 403 kts | 321° |
| 2026-05-06 15:31 | 38.68627 | 25.48068 | 38083 ft | 403 kts | 321° |
| 2026-05-06 15:31 | 38.73073 | 25.43682 | 38072 ft | 403 kts | 321° |
| 2026-05-06 15:32 | 38.79735 | 25.37097 | 38067 ft | 403 kts | 321° |
| 2026-05-06 15:32 | 38.84175 | 25.32699 | 38052 ft | 403 kts | 321° |
| 2026-05-06 15:33 | 38.88628 | 25.28281 | 38073 ft | 406 kts | 321° |
| 2026-05-06 15:33 | 38.93086 | 25.23851 | 38063 ft | 405 kts | 321° |
| 2026-05-06 15:34 | 38.97541 | 25.19416 | 38067 ft | 405 kts | 321° |
| 2026-05-06 15:34 | 39.01962 | 25.15008 | 38066 ft | 405 kts | 321° |
| 2026-05-06 15:35 | 39.06414 | 25.10562 | 38063 ft | 405 kts | 321° |
| 2026-05-06 15:35 | 39.10868 | 25.06107 | 38062 ft | 405 kts | 321° |
| 2026-05-06 15:36 | 39.15317 | 25.01650 | 38064 ft | 405 kts | 321° |
| 2026-05-06 15:36 | 39.19772 | 24.97181 | 38064 ft | 407 kts | 321° |
| 2026-05-06 15:37 | 39.24237 | 24.92692 | 38063 ft | 407 kts | 321° |
| 2026-05-06 15:37 | 39.28705 | 24.88197 | 38055 ft | 407 kts | 321° |
| 2026-05-06 15:38 | 39.33169 | 24.83698 | 38060 ft | 407 kts | 321° |
| 2026-05-06 15:38 | 39.37626 | 24.79198 | 38060 ft | 407 kts | 321° |
| 2026-05-06 15:39 | 39.42090 | 24.74684 | 38059 ft | 407 kts | 321° |
| 2026-05-06 15:39 | 39.46547 | 24.70169 | 38059 ft | 407 kts | 321° |
| 2026-05-06 15:40 | 39.51176 | 24.65978 | 38038 ft | 407 kts | 333° |
| 2026-05-06 15:40 | 39.56289 | 24.62757 | 38031 ft | 409 kts | 332° |
| 2026-05-06 15:41 | 39.61401 | 24.59529 | 38055 ft | 410 kts | 332° |
| 2026-05-06 15:41 | 39.66527 | 24.56303 | 38053 ft | 409 kts | 332° |
| 2026-05-06 15:42 | 39.71651 | 24.53075 | 38056 ft | 409 kts | 332° |
| 2026-05-06 15:42 | 39.76738 | 24.49865 | 38054 ft | 408 kts | 332° |
| 2026-05-06 15:43 | 39.81843 | 24.46639 | 38054 ft | 408 kts | 332° |
| 2026-05-06 15:43 | 39.86953 | 24.43404 | 38052 ft | 408 kts | 332° |
| 2026-05-06 15:44 | 39.92064 | 24.40163 | 38053 ft | 408 kts | 332° |
| 2026-05-06 15:44 | 39.97177 | 24.36916 | 38054 ft | 409 kts | 332° |
| 2026-05-06 15:45 | 40.02299 | 24.33656 | 38049 ft | 409 kts | 332° |
| 2026-05-06 15:45 | 40.07412 | 24.30398 | 38048 ft | 409 kts | 332° |
| 2026-05-06 15:46 | 40.12532 | 24.27130 | 38049 ft | 409 kts | 332° |
| 2026-05-06 15:46 | 40.17647 | 24.23859 | 38043 ft | 409 kts | 332° |
| 2026-05-06 15:47 | 40.22762 | 24.20582 | 38043 ft | 410 kts | 332° |
| 2026-05-06 15:47 | 40.27874 | 24.17302 | 38045 ft | 410 kts | 332° |
| 2026-05-06 15:48 | 40.32989 | 24.14015 | 38038 ft | 410 kts | 332° |
| 2026-05-06 15:48 | 40.38110 | 24.10718 | 38031 ft | 410 kts | 332° |
| 2026-05-06 15:49 | 40.42359 | 24.07978 | 38038 ft | 410 kts | 332° |
| 2026-05-06 15:49 | 40.47476 | 24.04674 | 38031 ft | 411 kts | 332° |
| 2026-05-06 15:50 | 40.52607 | 24.01355 | 38035 ft | 411 kts | 332° |
| 2026-05-06 15:50 | 40.57742 | 23.98028 | 38033 ft | 411 kts | 332° |
| 2026-05-06 15:51 | 40.62907 | 23.94773 | 38025 ft | 412 kts | 332° |
| 2026-05-06 15:51 | 40.68072 | 23.91530 | 38034 ft | 412 kts | 332° |
| 2026-05-06 15:52 | 40.73209 | 23.88297 | 38026 ft | 412 kts | 332° |
| 2026-05-06 15:52 | 40.78378 | 23.85038 | 38020 ft | 412 kts | 332° |
| 2026-05-06 15:53 | 40.83550 | 23.81772 | 38023 ft | 412 kts | 332° |
| 2026-05-06 15:53 | 40.88718 | 23.78502 | 38018 ft | 412 kts | 332° |
| 2026-05-06 15:54 | 40.93880 | 23.75231 | 38021 ft | 412 kts | 332° |
| 2026-05-06 15:54 | 40.99068 | 23.71937 | 38017 ft | 416 kts | 332° |
| 2026-05-06 15:55 | 41.04284 | 23.68619 | 38007 ft | 415 kts | 332° |
| 2026-05-06 15:55 | 41.09490 | 23.65302 | 38008 ft | 416 kts | 332° |
| 2026-05-06 15:56 | 41.14702 | 23.61976 | 38023 ft | 416 kts | 332° |
| 2026-05-06 15:56 | 41.19902 | 23.58651 | 38003 ft | 415 kts | 332° |
| 2026-05-06 15:57 | 41.25104 | 23.55318 | 38012 ft | 415 kts | 332° |
| 2026-05-06 15:57 | 41.30297 | 23.51982 | 38010 ft | 415 kts | 332° |
| 2026-05-06 15:58 | 41.35486 | 23.48644 | 38003 ft | 414 kts | 332° |
| 2026-05-06 15:58 | 41.40669 | 23.45296 | 38002 ft | 414 kts | 332° |
| 2026-05-06 15:59 | 41.45812 | 23.41949 | 38007 ft | 415 kts | 332° |
| 2026-05-06 15:59 | 41.51013 | 23.38559 | 38027 ft | 417 kts | 332° |
| 2026-05-06 16:00 | 41.56223 | 23.35157 | 38031 ft | 417 kts | 332° |
| 2026-05-06 16:00 | 41.61433 | 23.31748 | 38027 ft | 417 kts | 332° |
| 2026-05-06 16:01 | 41.66642 | 23.28337 | 38020 ft | 417 kts | 332° |
| 2026-05-06 16:01 | 41.71852 | 23.24914 | 38021 ft | 417 kts | 332° |
| 2026-05-06 16:02 | 41.77069 | 23.21485 | 38023 ft | 417 kts | 332° |
| 2026-05-06 16:02 | 41.82278 | 23.18053 | 38039 ft | 417 kts | 331° |
| 2026-05-06 16:03 | 41.87485 | 23.14616 | 38033 ft | 418 kts | 331° |
| 2026-05-06 16:03 | 41.92694 | 23.11171 | 38028 ft | 418 kts | 331° |
| 2026-05-06 16:04 | 41.97883 | 23.07733 | 38019 ft | 419 kts | 331° |
| 2026-05-06 16:04 | 42.03111 | 23.04263 | 38006 ft | 419 kts | 331° |
| 2026-05-06 16:05 | 42.08338 | 23.00788 | 38008 ft | 420 kts | 331° |
| 2026-05-06 16:05 | 42.13570 | 22.97303 | 38002 ft | 419 kts | 331° |
| 2026-05-06 16:06 | 42.18798 | 22.93814 | 37998 ft | 419 kts | 331° |
| 2026-05-06 16:06 | 42.24027 | 22.90319 | 38000 ft | 419 kts | 331° |
| 2026-05-06 16:07 | 42.29243 | 22.86824 | 38005 ft | 419 kts | 331° |
| 2026-05-06 16:07 | 42.34462 | 22.83320 | 37996 ft | 419 kts | 331° |
| 2026-05-06 16:08 | 42.39684 | 22.79810 | 37987 ft | 419 kts | 331° |
| 2026-05-06 16:08 | 42.44899 | 22.76295 | 37989 ft | 420 kts | 331° |
| 2026-05-06 16:09 | 42.50141 | 22.72758 | 37987 ft | 422 kts | 331° |
| 2026-05-06 16:09 | 42.55391 | 22.69208 | 37993 ft | 422 kts | 331° |
| 2026-05-06 16:10 | 42.60644 | 22.65650 | 37989 ft | 422 kts | 331° |
| 2026-05-06 16:10 | 42.65888 | 22.62090 | 37991 ft | 422 kts | 331° |
| 2026-05-06 16:11 | 42.69987 | 22.59302 | 37993 ft | 422 kts | 331° |
| 2026-05-06 16:11 | 42.75229 | 22.55732 | 37995 ft | 422 kts | 331° |
| 2026-05-06 16:12 | 42.80474 | 22.52153 | 37988 ft | 422 kts | 331° |
| 2026-05-06 16:12 | 42.85637 | 22.48360 | 37986 ft | 420 kts | 323° |
| 2026-05-06 16:13 | 42.90507 | 22.43916 | 37973 ft | 421 kts | 323° |
| 2026-05-06 16:13 | 42.95372 | 22.39450 | 37989 ft | 422 kts | 324° |
| 2026-05-06 16:14 | 43.00211 | 22.34994 | 37961 ft | 420 kts | 324° |
| 2026-05-06 16:14 | 43.05059 | 22.30519 | 37950 ft | 421 kts | 323° |
| 2026-05-06 16:15 | 43.09917 | 22.26027 | 37960 ft | 422 kts | 323° |
| 2026-05-06 16:15 | 43.14778 | 22.21524 | 37946 ft | 422 kts | 323° |
| 2026-05-06 16:16 | 43.17268 | 22.19215 | 37942 ft | 422 kts | 323° |
| 2026-05-06 16:16 | 43.22131 | 22.14695 | 37940 ft | 421 kts | 323° |
| 2026-05-06 16:17 | 43.26977 | 22.10183 | 37943 ft | 421 kts | 323° |
| 2026-05-06 16:17 | 43.31832 | 22.05655 | 37948 ft | 423 kts | 323° |
| 2026-05-06 16:18 | 43.36694 | 22.01110 | 37935 ft | 422 kts | 323° |
| 2026-05-06 16:18 | 43.41551 | 21.96562 | 37938 ft | 423 kts | 323° |
| 2026-05-06 16:19 | 43.46406 | 21.92006 | 37941 ft | 422 kts | 323° |
| 2026-05-06 16:19 | 43.51256 | 21.87446 | 37943 ft | 422 kts | 323° |
| 2026-05-06 16:20 | 43.56098 | 21.82884 | 37936 ft | 422 kts | 323° |
| 2026-05-06 16:20 | 43.60816 | 21.78431 | 37931 ft | 422 kts | 323° |
| 2026-05-06 16:21 | 43.65631 | 21.73876 | 37934 ft | 422 kts | 323° |
| 2026-05-06 16:21 | 43.70463 | 21.69297 | 37936 ft | 420 kts | 323° |
| 2026-05-06 16:22 | 43.75285 | 21.64719 | 37922 ft | 421 kts | 323° |
| 2026-05-06 16:22 | 43.79325 | 21.60875 | 37934 ft | 421 kts | 323° |
| 2026-05-06 16:23 | 43.84045 | 21.56378 | 37930 ft | 421 kts | 323° |
| 2026-05-06 16:23 | 43.88871 | 21.51769 | 37924 ft | 421 kts | 323° |
| 2026-05-06 16:24 | 43.93690 | 21.47159 | 37934 ft | 420 kts | 323° |
| 2026-05-06 16:24 | 43.98508 | 21.42539 | 37932 ft | 422 kts | 323° |
| 2026-05-06 16:25 | 44.03333 | 21.37903 | 37925 ft | 422 kts | 322° |
| 2026-05-06 16:25 | 44.08157 | 21.33260 | 37930 ft | 422 kts | 322° |
| 2026-05-06 16:26 | 44.12981 | 21.28607 | 37927 ft | 422 kts | 322° |
| 2026-05-06 16:26 | 44.17792 | 21.23956 | 37918 ft | 421 kts | 322° |
| 2026-05-06 16:27 | 44.22604 | 21.19296 | 37928 ft | 422 kts | 322° |
| 2026-05-06 16:27 | 44.27415 | 21.14628 | 37935 ft | 421 kts | 322° |
| 2026-05-06 16:28 | 44.32195 | 21.09981 | 37917 ft | 421 kts | 322° |
| 2026-05-06 16:28 | 44.37002 | 21.05297 | 37916 ft | 421 kts | 322° |
| 2026-05-06 16:29 | 44.41806 | 21.00605 | 37926 ft | 421 kts | 322° |
| 2026-05-06 16:29 | 44.46606 | 20.95909 | 37921 ft | 421 kts | 322° |
| 2026-05-06 16:30 | 44.50623 | 20.91972 | 37923 ft | 421 kts | 322° |
| 2026-05-06 16:30 | 44.56112 | 20.86581 | 37924 ft | 400 kts | 321° |
| 2026-05-06 16:31 | 44.60605 | 20.82159 | 37914 ft | 392 kts | 321° |
| 2026-05-06 16:31 | 44.65065 | 20.77759 | 37933 ft | 392 kts | 321° |
| 2026-05-06 16:32 | 44.69525 | 20.73353 | 37916 ft | 391 kts | 321° |
| 2026-05-06 16:32 | 44.73974 | 20.68949 | 37920 ft | 391 kts | 321° |
| 2026-05-06 16:33 | 44.78423 | 20.64535 | 37919 ft | 391 kts | 321° |
| 2026-05-06 16:34 | 44.85088 | 20.57908 | 37913 ft | 391 kts | 321° |
| 2026-05-06 16:34 | 44.89543 | 20.53469 | 37915 ft | 393 kts | 321° |
| 2026-05-06 16:35 | 44.94001 | 20.49017 | 37912 ft | 393 kts | 320° |
| 2026-05-06 16:35 | 44.98432 | 20.44583 | 37912 ft | 393 kts | 320° |
| 2026-05-06 16:36 | 45.02913 | 20.40092 | 37914 ft | 392 kts | 320° |
| 2026-05-06 16:36 | 45.07289 | 20.35696 | 37912 ft | 386 kts | 320° |
| 2026-05-06 16:37 | 45.11669 | 20.31288 | 37917 ft | 387 kts | 320° |
| 2026-05-06 16:37 | 45.15051 | 20.27878 | 37920 ft | 389 kts | 320° |
| 2026-05-06 16:38 | 45.19505 | 20.23381 | 37914 ft | 391 kts | 320° |
| 2026-05-06 16:38 | 45.23933 | 20.18901 | 37911 ft | 391 kts | 320° |
| 2026-05-06 16:39 | 45.27614 | 20.15169 | 37907 ft | 391 kts | 320° |
| 2026-05-06 16:39 | 45.32070 | 20.10645 | 37922 ft | 391 kts | 319° |
| 2026-05-06 16:40 | 45.36511 | 20.06127 | 37911 ft | 394 kts | 319° |
| 2026-05-06 16:40 | 45.40930 | 20.01621 | 37915 ft | 394 kts | 319° |
| 2026-05-06 16:41 | 45.45374 | 19.97082 | 37899 ft | 393 kts | 319° |
| 2026-05-06 16:41 | 45.49815 | 19.92537 | 37904 ft | 393 kts | 319° |
| 2026-05-06 16:42 | 45.54260 | 19.87979 | 37903 ft | 393 kts | 319° |
| 2026-05-06 16:42 | 45.58703 | 19.83413 | 37901 ft | 395 kts | 319° |
| 2026-05-06 16:43 | 45.63163 | 19.78821 | 37904 ft | 396 kts | 319° |
| 2026-05-06 16:43 | 45.67629 | 19.74213 | 37904 ft | 395 kts | 319° |
| 2026-05-06 16:44 | 45.72078 | 19.69615 | 37903 ft | 394 kts | 319° |
| 2026-05-06 16:44 | 45.76518 | 19.65017 | 37900 ft | 394 kts | 319° |
| 2026-05-06 16:45 | 45.80959 | 19.60410 | 37899 ft | 394 kts | 319° |
| 2026-05-06 16:45 | 45.85399 | 19.55795 | 37900 ft | 394 kts | 319° |
| 2026-05-06 16:46 | 45.89839 | 19.51171 | 37897 ft | 394 kts | 319° |
| 2026-05-06 16:46 | 45.94271 | 19.46546 | 37894 ft | 393 kts | 319° |
| 2026-05-06 16:47 | 45.98688 | 19.41927 | 37898 ft | 392 kts | 319° |
| 2026-05-06 16:47 | 46.03097 | 19.37308 | 37921 ft | 393 kts | 319° |
| 2026-05-06 16:48 | 46.07308 | 19.32341 | 37939 ft | 392 kts | 314° |
| 2026-05-06 16:48 | 46.11463 | 19.27300 | 37889 ft | 393 kts | 314° |
| 2026-05-06 16:49 | 46.15655 | 19.22241 | 37891 ft | 393 kts | 315° |
| 2026-05-06 16:49 | 46.19842 | 19.17184 | 37893 ft | 392 kts | 315° |
| 2026-05-06 16:50 | 46.24003 | 19.12148 | 37890 ft | 390 kts | 315° |
| 2026-05-06 16:50 | 46.28172 | 19.07091 | 37892 ft | 393 kts | 314° |
| 2026-05-06 16:51 | 46.32362 | 19.01999 | 37899 ft | 394 kts | 314° |
| 2026-05-06 16:51 | 46.36553 | 18.96896 | 37898 ft | 394 kts | 314° |
| 2026-05-06 16:52 | 46.40739 | 18.91787 | 37897 ft | 394 kts | 314° |
| 2026-05-06 16:52 | 46.44927 | 18.86667 | 37904 ft | 393 kts | 314° |
| 2026-05-06 16:53 | 46.49100 | 18.81553 | 37899 ft | 393 kts | 314° |
| 2026-05-06 16:53 | 46.53258 | 18.76447 | 37897 ft | 395 kts | 314° |
| 2026-05-06 16:54 | 46.57476 | 18.71257 | 37890 ft | 394 kts | 314° |
| 2026-05-06 16:54 | 46.61628 | 18.66138 | 37889 ft | 394 kts | 314° |
| 2026-05-06 16:55 | 46.65809 | 18.60971 | 37885 ft | 394 kts | 314° |
| 2026-05-06 16:55 | 46.69990 | 18.55793 | 37918 ft | 395 kts | 313° |
| 2026-05-06 16:56 | 46.74179 | 18.50595 | 37901 ft | 396 kts | 314° |
| 2026-05-06 16:56 | 46.78413 | 18.45330 | 37892 ft | 405 kts | 314° |
| 2026-05-06 16:57 | 46.82744 | 18.39933 | 37883 ft | 414 kts | 314° |
| 2026-05-06 16:57 | 46.87178 | 18.34395 | 37878 ft | 424 kts | 314° |
| 2026-05-06 16:58 | 46.91705 | 18.28727 | 37882 ft | 433 kts | 314° |
| 2026-05-06 16:58 | 46.96274 | 18.22994 | 37881 ft | 433 kts | 314° |
| 2026-05-06 16:59 | 47.00837 | 18.17256 | 37883 ft | 433 kts | 314° |
| 2026-05-06 16:59 | 47.05404 | 18.11497 | 37879 ft | 433 kts | 314° |
| 2026-05-06 17:00 | 47.09968 | 18.05730 | 37875 ft | 433 kts | 314° |
| 2026-05-06 17:00 | 47.14530 | 17.99953 | 37873 ft | 433 kts | 314° |
| 2026-05-06 17:01 | 47.19096 | 17.94156 | 37879 ft | 435 kts | 313° |
| 2026-05-06 17:01 | 47.23667 | 17.88339 | 37863 ft | 435 kts | 313° |
| 2026-05-06 17:02 | 47.28237 | 17.82509 | 37857 ft | 435 kts | 313° |
| 2026-05-06 17:02 | 47.32812 | 17.76660 | 37854 ft | 435 kts | 313° |
| 2026-05-06 17:03 | 47.37374 | 17.70812 | 37875 ft | 435 kts | 313° |
| 2026-05-06 17:03 | 47.41950 | 17.64934 | 37855 ft | 437 kts | 313° |
| 2026-05-06 17:04 | 47.46538 | 17.59025 | 37847 ft | 437 kts | 313° |
| 2026-05-06 17:04 | 47.51117 | 17.53113 | 37854 ft | 438 kts | 313° |
| 2026-05-06 17:05 | 47.55700 | 17.47183 | 37848 ft | 438 kts | 313° |
| 2026-05-06 17:05 | 47.60279 | 17.41243 | 37848 ft | 438 kts | 313° |
| 2026-05-06 17:06 | 47.64853 | 17.35295 | 37827 ft | 442 kts | 313° |
| 2026-05-06 17:06 | 47.69475 | 17.29274 | 37812 ft | 442 kts | 313° |
| 2026-05-06 17:07 | 47.74095 | 17.23240 | 37808 ft | 442 kts | 313° |
| 2026-05-06 17:07 | 47.78703 | 17.17209 | 37800 ft | 442 kts | 313° |
| 2026-05-06 17:08 | 47.83337 | 17.11261 | 37797 ft | 442 kts | 320° |
| 2026-05-06 17:08 | 47.88550 | 17.06268 | 37784 ft | 448 kts | 322° |
| 2026-05-06 17:09 | 47.93782 | 17.01283 | 37785 ft | 448 kts | 322° |
| 2026-05-06 17:09 | 47.99033 | 16.96276 | 37784 ft | 448 kts | 322° |
| 2026-05-06 17:10 | 48.04277 | 16.91264 | 37782 ft | 448 kts | 322° |
| 2026-05-06 17:10 | 48.09525 | 16.86236 | 37760 ft | 448 kts | 322° |
| 2026-05-06 17:11 | 48.14759 | 16.81210 | 37755 ft | 448 kts | 322° |
| 2026-05-06 17:11 | 48.19989 | 16.76175 | 37751 ft | 448 kts | 322° |
| 2026-05-06 17:12 | 48.25238 | 16.71109 | 37754 ft | 448 kts | 322° |
| 2026-05-06 17:12 | 48.30474 | 16.66042 | 37751 ft | 448 kts | 322° |
| 2026-05-06 17:13 | 48.35690 | 16.60984 | 37748 ft | 446 kts | 321° |
| 2026-05-06 17:13 | 48.40908 | 16.55910 | 37763 ft | 448 kts | 321° |
| 2026-05-06 17:14 | 48.46139 | 16.50811 | 37747 ft | 447 kts | 321° |
| 2026-05-06 17:14 | 48.51359 | 16.45710 | 37729 ft | 447 kts | 321° |
| 2026-05-06 17:15 | 48.56572 | 16.40602 | 37732 ft | 447 kts | 321° |
| 2026-05-06 17:15 | 48.61781 | 16.35487 | 37732 ft | 445 kts | 321° |
| 2026-05-06 17:16 | 48.66967 | 16.30382 | 37720 ft | 445 kts | 321° |
| 2026-05-06 17:16 | 48.72130 | 16.25205 | 37724 ft | 442 kts | 316° |
| 2026-05-06 17:17 | 48.76930 | 16.19393 | 37708 ft | 442 kts | 316° |
| 2026-05-06 17:17 | 48.81781 | 16.13652 | 36701 ft | 445 kts | 316° |
| 2026-05-06 17:17 | 48.84222 | 16.10770 | 35723 ft | 443 kts | 315° |
| 2026-05-06 17:18 | 48.86641 | 16.07912 | 34871 ft | 438 kts | 315° |
| 2026-05-06 17:18 | 48.89000 | 16.05124 | 34052 ft | 433 kts | 314° |
| 2026-05-06 17:18 | 48.91366 | 16.02324 | 33175 ft | 428 kts | 314° |
| 2026-05-06 17:18 | 48.93701 | 15.99557 | 32289 ft | 423 kts | 314° |
| 2026-05-06 17:19 | 48.96003 | 15.96825 | 31453 ft | 419 kts | 314° |